Planet Ace — 3EYF9 — position and weather

sailwx.info

Track history (hours):
 
Tides and Currents Weather Stations Pressure Air Temp Water Temp Dewpoint Dewpoint Depression Visibility Wind Speed Wind Dir Waves Ship Positions

Planet Ace

Last reported at 2015-Jan-31 20:33 UTC. Time now 2015-Jan-31 21:11 UTC.
Position N 41°04' E 002°02'.

Length 188 m; beam 28.2 m.

Type: Cargo ship. MMSI: 352168000.

Date/timePositionNaut miles runAvg speedWind from/ knotsBaromVisibWave heightAir tempDewpointWater temp
2015-Jan-31 20:33N 41°04' E 002°02'17 1.0
2015-Jan-31 03:11N 41°20' E 002°09'2 0.3
2015-Jan-30 21:09N 41°18' E 002°11'5 7.5
2015-Jan-30 20:28N 41°17' E 002°17'3014.6
2015-Jan-30 18:26N 41°27' E 002°55'1514.7
2015-Jan-30 17:26N 41°32' E 003°13'1615.5
2015-Jan-30 16:26N 41°37' E 003°33'1314.3
2015-Jan-30 15:32N 41°40' E 003°50'1413.9
2015-Jan-30 14:32N 41°43' E 004°08'1713.0
2015-Jan-30 13:15N 41°48' E 004°29'1011.5
2015-Jan-30 12:25N 41°51' E 004°41'910.9
2015-Jan-30 11:33N 41°55' E 004°53'2210.0
2015-Jan-30 09:22N 42°03' E 005°20'8811.1
2015-Jan-30 01:26N 42°35' E 007°11'9512.0
2015-Jan-29 17:33N 43°07' E 009°13'1010.0
2015-Jan-29 16:33N 43°11' E 009°26'1110.9
2015-Jan-29 15:33N 43°14' E 009°40'1110.8
2015-Jan-29 14:33N 43°18' E 009°53'1110.9
2015-Jan-29 13:33N 43°24' E 010°06'1110.7
2015-Jan-29 12:33N 43°32' E 010°16'3 2.9
2015-Jan-29 11:30N 43°35' E 010°18'0 0.0
2015-Jan-29 10:33N 43°35' E 010°18'0 0.0
2015-Jan-29 09:33N 43°35' E 010°18'0 0.0
2015-Jan-29 08:33N 43°35' E 010°18'0 0.0
2015-Jan-29 07:33N 43°35' E 010°18'0 0.0
2015-Jan-29 06:33N 43°35' E 010°18'0 0.0
2015-Jan-29 05:33N 43°35' E 010°18'0 0.0
2015-Jan-29 04:33N 43°35' E 010°18'0 0.0
2015-Jan-29 03:32N 43°35' E 010°18'0 0.0
2015-Jan-29 02:32N 43°35' E 010°18'0 0.0
2015-Jan-29 01:32N 43°35' E 010°18'0 0.0
2015-Jan-29 00:32N 43°35' E 010°18'0 0.0
2015-Jan-28 23:32N 43°35' E 010°18'0 0.0
2015-Jan-28 22:32N 43°35' E 010°18'0 0.0
2015-Jan-28 21:32N 43°35' E 010°18'0 0.0
2015-Jan-28 20:32N 43°35' E 010°18'0 0.0
2015-Jan-28 19:32N 43°35' E 010°18'0 0.0
2015-Jan-28 18:32N 43°35' E 010°18'2 2.2
2015-Jan-28 17:34N 43°33' E 010°17'6 5.7
2015-Jan-28 16:34N 43°27' E 010°17'1 0.7
2015-Jan-28 15:33N 43°26' E 010°18'1 0.8
2015-Jan-28 14:34N 43°27' E 010°17'1 0.7
2015-Jan-28 13:34N 43°27' E 010°16'1 0.7
2015-Jan-28 12:34N 43°27' E 010°15'1 0.5
2015-Jan-28 11:34N 43°28' E 010°15'6 6.2
2015-Jan-28 10:34N 43°25' E 010°08'1616.1
2015-Jan-28 09:34N 43°17' E 009°48'1716.7
2015-Jan-28 08:34N 43°11' E 009°27'31615.0
2015-Jan-27 11:32N 40°24' E 003°26'1616.6
2015-Jan-27 10:33N 40°16' E 003°08'1616.5
2015-Jan-27 09:33N 40°07' E 002°49'1716.8
2015-Jan-27 08:33N 39°58' E 002°31'1717.2
2015-Jan-27 07:33N 39°49' E 002°12'1717.1
2015-Jan-27 06:33N 39°39' E 001°54'1717.3
2015-Jan-27 05:33N 39°29' E 001°36'1717.3
2015-Jan-27 04:33N 39°19' E 001°17'5416.6
2015-Jan-27 01:18N 38°39' E 000°31'2916.6
2015-Jan-26 23:33N 38°16' E 000°08'1616.0
2015-Jan-26 22:33N 38°03' W 000°04'1716.9
2015-Jan-26 21:33N 37°49' W 000°16'1716.5
2015-Jan-26 20:33N 37°35' W 000°26'1616.4
2015-Jan-26 19:33N 37°25' W 000°42'1717.1
2015-Jan-26 18:33N 37°14' W 000°59'1917.6
2015-Jan-26 17:30N 37°02' W 001°17'20115.5
2015-Jan-26 04:33N 36°01' W 005°15'168 8.7
2015-Jan-25 09:16N 36°26' W 008°41'1216.5
2015-Jan-25 08:34N 36°29' W 008°54'1817.0
2015-Jan-25 07:31N 36°35' W 009°15'2317.0
2015-Jan-25 06:11N 36°52' W 009°33'1217.4
2015-Jan-25 05:30N 37°04' W 009°37'1717.4
2015-Jan-25 04:32N 37°20' W 009°42'1717.6
2015-Jan-25 03:33N 37°37' W 009°47'1817.7
2015-Jan-25 02:33N 37°54' W 009°51'1817.5
2015-Jan-25 01:32N 38°11' W 009°57'1717.7
2015-Jan-25 00:33N 38°29' W 010°01'1817.9
2015-Jan-24 23:33N 38°46' W 010°05'35113.3
2015-Jan-23 21:17N 43°49' W 006°10'1517.0
2015-Jan-23 20:25N 43°47' W 005°50'1517.2
2015-Jan-23 19:33N 43°45' W 005°30'2117.0
2015-Jan-23 18:20N 43°42' W 005°01'384 9.4
2015-Jan-22 01:29N 50°03' W 003°40'1718.2
2015-Jan-22 00:34N 50°17' W 003°26'10 9.5
2015-Jan-21 23:33N 50°25' W 003°17'1116.0
2015-Jan-21 22:50N 50°25' W 002°59'116.0
2015-Jan-21 22:46N 50°25' W 002°58'315.9
2015-Jan-21 22:33N 50°25' W 002°52'1514.9
2015-Jan-21 21:33N 50°25' W 002°29'1313.0
2015-Jan-21 20:34N 50°25' W 002°09'  
Track history (hours):
 
Tides and Currents Weather Stations Pressure Air Temp Water Temp Dewpoint Dewpoint Depression Visibility Wind Speed Wind Dir Waves Ship Positions

Planet Ace

Last reported at 2015-Jan-31 20:33 UTC. Time now 2015-Jan-31 21:11 UTC.
Position N 41°04' E 002°02'.

Length 188 m; beam 28.2 m.

Type: Cargo ship. MMSI: 352168000.

Date/timePositionNaut miles runAvg speedWind from/ knotsBaromVisibWave heightAir tempDewpointWater temp
2015-Jan-31 20:33N 41°04' E 002°02'17 1.0
2015-Jan-31 03:11N 41°20' E 002°09'2 0.3
2015-Jan-30 21:09N 41°18' E 002°11'5 7.5
2015-Jan-30 20:28N 41°17' E 002°17'3014.6
2015-Jan-30 18:26N 41°27' E 002°55'1514.7
2015-Jan-30 17:26N 41°32' E 003°13'1615.5
2015-Jan-30 16:26N 41°37' E 003°33'1314.3
2015-Jan-30 15:32N 41°40' E 003°50'1413.9
2015-Jan-30 14:32N 41°43' E 004°08'1713.0
2015-Jan-30 13:15N 41°48' E 004°29'1011.5
2015-Jan-30 12:25N 41°51' E 004°41'910.9
2015-Jan-30 11:33N 41°55' E 004°53'2210.0
2015-Jan-30 09:22N 42°03' E 005°20'8811.1
2015-Jan-30 01:26N 42°35' E 007°11'9512.0
2015-Jan-29 17:33N 43°07' E 009°13'1010.0
2015-Jan-29 16:33N 43°11' E 009°26'1110.9
2015-Jan-29 15:33N 43°14' E 009°40'1110.8
2015-Jan-29 14:33N 43°18' E 009°53'1110.9
2015-Jan-29 13:33N 43°24' E 010°06'1110.7
2015-Jan-29 12:33N 43°32' E 010°16'3 2.9
2015-Jan-29 11:30N 43°35' E 010°18'0 0.0
2015-Jan-29 10:33N 43°35' E 010°18'0 0.0
2015-Jan-29 09:33N 43°35' E 010°18'0 0.0
2015-Jan-29 08:33N 43°35' E 010°18'0 0.0
2015-Jan-29 07:33N 43°35' E 010°18'0 0.0
2015-Jan-29 06:33N 43°35' E 010°18'0 0.0
2015-Jan-29 05:33N 43°35' E 010°18'0 0.0
2015-Jan-29 04:33N 43°35' E 010°18'0 0.0
2015-Jan-29 03:32N 43°35' E 010°18'0 0.0
2015-Jan-29 02:32N 43°35' E 010°18'0 0.0
2015-Jan-29 01:32N 43°35' E 010°18'0 0.0
2015-Jan-29 00:32N 43°35' E 010°18'0 0.0
2015-Jan-28 23:32N 43°35' E 010°18'0 0.0
2015-Jan-28 22:32N 43°35' E 010°18'0 0.0
2015-Jan-28 21:32N 43°35' E 010°18'0 0.0
2015-Jan-28 20:32N 43°35' E 010°18'0 0.0
2015-Jan-28 19:32N 43°35' E 010°18'0 0.0
2015-Jan-28 18:32N 43°35' E 010°18'2 2.2
2015-Jan-28 17:34N 43°33' E 010°17'6 5.7
2015-Jan-28 16:34N 43°27' E 010°17'1 0.7
2015-Jan-28 15:33N 43°26' E 010°18'1 0.8
2015-Jan-28 14:34N 43°27' E 010°17'1 0.7
2015-Jan-28 13:34N 43°27' E 010°16'1 0.7
2015-Jan-28 12:34N 43°27' E 010°15'1 0.5
2015-Jan-28 11:34N 43°28' E 010°15'6 6.2
2015-Jan-28 10:34N 43°25' E 010°08'1616.1
2015-Jan-28 09:34N 43°17' E 009°48'1716.7
2015-Jan-28 08:34N 43°11' E 009°27'31615.0
2015-Jan-27 11:32N 40°24' E 003°26'1616.6
2015-Jan-27 10:33N 40°16' E 003°08'1616.5
2015-Jan-27 09:33N 40°07' E 002°49'1716.8
2015-Jan-27 08:33N 39°58' E 002°31'1717.2
2015-Jan-27 07:33N 39°49' E 002°12'1717.1
2015-Jan-27 06:33N 39°39' E 001°54'1717.3
2015-Jan-27 05:33N 39°29' E 001°36'1717.3
2015-Jan-27 04:33N 39°19' E 001°17'5416.6
2015-Jan-27 01:18N 38°39' E 000°31'2916.6
2015-Jan-26 23:33N 38°16' E 000°08'1616.0
2015-Jan-26 22:33N 38°03' W 000°04'1716.9
2015-Jan-26 21:33N 37°49' W 000°16'1716.5
2015-Jan-26 20:33N 37°35' W 000°26'1616.4
2015-Jan-26 19:33N 37°25' W 000°42'1717.1
2015-Jan-26 18:33N 37°14' W 000°59'1917.6
2015-Jan-26 17:30N 37°02' W 001°17'20115.5
2015-Jan-26 04:33N 36°01' W 005°15'168 8.7
2015-Jan-25 09:16N 36°26' W 008°41'1216.5
2015-Jan-25 08:34N 36°29' W 008°54'1817.0
2015-Jan-25 07:31N 36°35' W 009°15'2317.0
2015-Jan-25 06:11N 36°52' W 009°33'1217.4
2015-Jan-25 05:30N 37°04' W 009°37'1717.4
2015-Jan-25 04:32N 37°20' W 009°42'1717.6
2015-Jan-25 03:33N 37°37' W 009°47'1817.7
2015-Jan-25 02:33N 37°54' W 009°51'1817.5
2015-Jan-25 01:32N 38°11' W 009°57'1717.7
2015-Jan-25 00:33N 38°29' W 010°01'1817.9
2015-Jan-24 23:33N 38°46' W 010°05'35113.3
2015-Jan-23 21:17N 43°49' W 006°10'1517.0
2015-Jan-23 20:25N 43°47' W 005°50'1517.2
2015-Jan-23 19:33N 43°45' W 005°30'2117.0
2015-Jan-23 18:20N 43°42' W 005°01'384 9.4
2015-Jan-22 01:29N 50°03' W 003°40'1718.2
2015-Jan-22 00:34N 50°17' W 003°26'10 9.5
2015-Jan-21 23:33N 50°25' W 003°17'1116.0
2015-Jan-21 22:50N 50°25' W 002°59'116.0
2015-Jan-21 22:46N 50°25' W 002°58'315.9
2015-Jan-21 22:33N 50°25' W 002°52'1514.9
2015-Jan-21 21:33N 50°25' W 002°29'1313.0
2015-Jan-21 20:34N 50°25' W 002°09'  

Dump ship's entire track history